sensor_id;sensor_type;location;lat;lon;timestamp;pressure;altitude;pressure_sealevel;temperature;humidity
82379;BME280;72008;48.140;11.614;2023-11-19T00:00:42;95547.69;;;6.08;84.46
82379;BME280;72008;48.140;11.614;2023-11-19T00:01:42;95545.66;;;6.14;83.92
82379;BME280;72008;48.140;11.614;2023-11-19T00:02:43;95549.03;;;6.20;85.32
82379;BME280;72008;48.140;11.614;2023-11-19T00:03:44;95541.34;;;6.13;83.31
82379;BME280;72008;48.140;11.614;2023-11-19T00:04:44;95543.91;;;6.18;83.24
82379;BME280;72008;48.140;11.614;2023-11-19T00:05:45;95544.53;;;6.15;83.59
82379;BME280;72008;48.140;11.614;2023-11-19T00:06:45;95542.00;;;6.19;85.63
82379;BME280;72008;48.140;11.614;2023-11-19T00:07:45;95538.00;;;6.16;83.67
82379;BME280;72008;48.140;11.614;2023-11-19T00:08:46;95528.84;;;6.12;82.74
82379;BME280;72008;48.140;11.614;2023-11-19T00:09:46;95535.06;;;6.04;83.24
82379;BME280;72008;48.140;11.614;2023-11-19T00:10:46;95528.84;;;6.12;85.63
82379;BME280;72008;48.140;11.614;2023-11-19T00:11:47;95531.41;;;6.08;84.66
82379;BME280;72008;48.140;11.614;2023-11-19T00:12:49;95521.19;;;6.14;83.24
82379;BME280;72008;48.140;11.614;2023-11-19T00:13:49;95523.59;;;6.15;84.02
82379;BME280;72008;48.140;11.614;2023-11-19T00:14:50;95523.28;;;6.17;84.15
82379;BME280;72008;48.140;11.614;2023-11-19T00:15:50;95524.41;;;6.16;82.35
82379;BME280;72008;48.140;11.614;2023-11-19T00:16:50;95518.16;;;6.15;81.79
82379;BME280;72008;48.140;11.614;2023-11-19T00:17:51;95517.69;;;6.13;84.89
82379;BME280;72008;48.140;11.614;2023-11-19T00:18:52;95508.91;;;6.17;85.03
82379;BME280;72008;48.140;11.614;2023-11-19T00:19:52;95510.44;;;6.09;82.58
82379;BME280;72008;48.140;11.614;2023-11-19T00:20:52;95503.88;;;6.01;83.00
82379;BME280;72008;48.140;11.614;2023-11-19T00:21:53;95499.59;;;6.09;85.78
82379;BME280;72008;48.140;11.614;2023-11-19T00:22:53;95502.94;;;6.06;83.99
82379;BME280;72008;48.140;11.614;2023-11-19T00:23:54;95500.88;;;6.11;83.82
82379;BME280;72008;48.140;11.614;2023-11-19T00:24:54;95500.56;;;6.13;84.45
82379;BME280;72008;48.140;11.614;2023-11-19T00:25:54;95490.66;;;6.17;85.70
82379;BME280;72008;48.140;11.614;2023-11-19T00:26:55;95488.59;;;6.23;85.34
82379;BME280;72008;48.140;11.614;2023-11-19T00:27:55;95491.81;;;6.25;86.01
82379;BME280;72008;48.140;11.614;2023-11-19T00:28:56;95487.81;;;6.22;84.14
82379;BME280;72008;48.140;11.614;2023-11-19T00:29:56;95483.66;;;6.25;84.31
82379;BME280;72008;48.140;11.614;2023-11-19T00:30:57;95486.38;;;6.25;84.73
82379;BME280;72008;48.140;11.614;2023-11-19T00:31:57;95486.84;;;6.27;85.10
82379;BME280;72008;48.140;11.614;2023-11-19T00:32:57;95478.88;;;6.30;85.16
82379;BME280;72008;48.140;11.614;2023-11-19T00:33:58;95489.75;;;6.30;84.79
82379;BME280;72008;48.140;11.614;2023-11-19T00:34:58;95484.50;;;6.34;85.33
82379;BME280;72008;48.140;11.614;2023-11-19T00:35:59;95492.00;;;6.37;86.15
82379;BME280;72008;48.140;11.614;2023-11-19T00:36:59;95488.16;;;6.38;84.42
82379;BME280;72008;48.140;11.614;2023-11-19T00:37:59;95479.72;;;6.40;83.15
82379;BME280;72008;48.140;11.614;2023-11-19T00:39:00;95485.44;;;6.38;84.55
82379;BME280;72008;48.140;11.614;2023-11-19T00:40:00;95481.31;;;6.41;86.40
82379;BME280;72008;48.140;11.614;2023-11-19T00:41:00;95480.34;;;6.36;84.09
82379;BME280;72008;48.140;11.614;2023-11-19T00:42:01;95478.59;;;6.41;85.31
82379;BME280;72008;48.140;11.614;2023-11-19T00:43:01;95478.28;;;6.42;84.00
82379;BME280;72008;48.140;11.614;2023-11-19T00:44:02;95476.66;;;6.41;84.78
82379;BME280;72008;48.140;11.614;2023-11-19T00:45:02;95475.06;;;6.40;83.66
82379;BME280;72008;48.140;11.614;2023-11-19T00:46:03;95477.63;;;6.36;84.56
82379;BME280;72008;48.140;11.614;2023-11-19T00:47:04;95479.38;;;6.41;84.46
82379;BME280;72008;48.140;11.614;2023-11-19T00:48:04;95471.84;;;6.38;83.17
82379;BME280;72008;48.140;11.614;2023-11-19T00:49:05;95470.91;;;6.43;85.78
82379;BME280;72008;48.140;11.614;2023-11-19T00:50:07;95468.34;;;6.37;84.93
82379;BME280;72008;48.140;11.614;2023-11-19T00:51:07;95464.50;;;6.38;84.29
82379;BME280;72008;48.140;11.614;2023-11-19T00:52:08;95471.22;;;6.41;85.16
82379;BME280;72008;48.140;11.614;2023-11-19T00:53:08;95458.91;;;6.44;85.69
82379;BME280;72008;48.140;11.614;2023-11-19T00:54:09;95454.78;;;6.46;84.59
82379;BME280;72008;48.140;11.614;2023-11-19T00:55:09;95467.56;;;6.46;85.16
82379;BME280;72008;48.140;11.614;2023-11-19T00:56:10;95459.56;;;6.41;84.46
82379;BME280;72008;48.140;11.614;2023-11-19T00:57:11;95464.06;;;6.45;85.82
82379;BME280;72008;48.140;11.614;2023-11-19T00:58:12;95459.88;;;6.39;83.23
82379;BME280;72008;48.140;11.614;2023-11-19T00:59:12;95457.16;;;6.39;84.35
82379;BME280;72008;48.140;11.614;2023-11-19T01:00:13;95456.19;;;6.44;85.36
82379;BME280;72008;48.140;11.614;2023-11-19T01:01:13;95457.78;;;6.45;84.33
82379;BME280;72008;48.140;11.614;2023-11-19T01:02:14;95457.00;;;6.44;84.26
82379;BME280;72008;48.140;11.614;2023-11-19T01:03:14;95459.88;;;6.39;85.36
82379;BME280;72008;48.140;11.614;2023-11-19T01:04:15;95449.81;;;6.40;84.32
82379;BME280;72008;48.140;11.614;2023-11-19T01:05:15;95456.03;;;6.40;84.22
82379;BME280;72008;48.140;11.614;2023-11-19T01:06:26;95455.72;;;6.42;85.76
82379;BME280;72008;48.140;11.614;2023-11-19T01:07:27;95456.19;;;6.44;83.62
82379;BME280;72008;48.140;11.614;2023-11-19T01:08:27;95461.97;;;6.42;84.07
82379;BME280;72008;48.140;11.614;2023-11-19T01:09:28;95450.59;;;6.40;84.24
82379;BME280;72008;48.140;11.614;2023-11-19T01:10:28;95459.41;;;6.37;83.58
82379;BME280;72008;48.140;11.614;2023-11-19T01:11:28;95453.16;;;6.36;85.12
82379;BME280;72008;48.140;11.614;2023-11-19T01:12:29;95455.38;;;6.34;84.20
82379;BME280;72008;48.140;11.614;2023-11-19T01:13:29;95451.41;;;6.41;85.17
82379;BME280;72008;48.140;11.614;2023-11-19T01:14:30;95457.47;;;6.37;83.84
82379;BME280;72008;48.140;11.614;2023-11-19T01:15:33;95446.59;;;6.37;83.96
82379;BME280;72008;48.140;11.614;2023-11-19T01:16:33;95451.72;;;6.39;84.44
82379;BME280;72008;48.140;11.614;2023-11-19T01:17:34;95444.38;;;6.40;85.19
82379;BME280;72008;48.140;11.614;2023-11-19T01:18:34;95447.56;;;6.42;84.33
82379;BME280;72008;48.140;11.614;2023-11-19T01:19:34;95444.53;;;6.43;84.71
82379;BME280;72008;48.140;11.614;2023-11-19T01:20:35;95446.13;;;6.44;84.80
82379;BME280;72008;48.140;11.614;2023-11-19T01:21:36;95443.72;;;6.34;83.30
82379;BME280;72008;48.140;11.614;2023-11-19T01:22:37;95441.78;;;6.34;84.15
82379;BME280;72008;48.140;11.614;2023-11-19T01:23:37;95440.53;;;6.41;86.28
82379;BME280;72008;48.140;11.614;2023-11-19T01:24:37;95443.41;;;6.44;85.75
82379;BME280;72008;48.140;11.614;2023-11-19T01:25:38;95434.44;;;6.44;84.74
82379;BME280;72008;48.140;11.614;2023-11-19T01:26:38;95437.50;;;6.42;85.40
82379;BME280;72008;48.140;11.614;2023-11-19T01:27:39;95442.44;;;6.40;84.37
82379;BME280;72008;48.140;11.614;2023-11-19T01:28:39;95431.06;;;6.38;85.11
82379;BME280;72008;48.140;11.614;2023-11-19T01:29:40;95431.56;;;6.40;85.61
82379;BME280;72008;48.140;11.614;2023-11-19T01:30:40;95433.97;;;6.42;85.58
82379;BME280;72008;48.140;11.614;2023-11-19T01:31:42;95430.94;;;6.43;85.68
82379;BME280;72008;48.140;11.614;2023-11-19T01:32:42;95423.28;;;6.45;85.10
82379;BME280;72008;48.140;11.614;2023-11-19T01:33:43;95435.09;;;6.41;85.12
82379;BME280;72008;48.140;11.614;2023-11-19T01:34:43;95435.72;;;6.37;84.81
82379;BME280;72008;48.140;11.614;2023-11-19T01:35:44;95435.09;;;6.41;84.29
82379;BME280;72008;48.140;11.614;2023-11-19T01:36:44;95424.38;;;6.44;85.95
82379;BME280;72008;48.140;11.614;2023-11-19T01:37:44;95439.25;;;6.47;85.85
82379;BME280;72008;48.140;11.614;2023-11-19T01:38:45;95436.88;;;6.45;83.99
82379;BME280;72008;48.140;11.614;2023-11-19T01:39:45;95436.38;;;6.43;84.21
82379;BME280;72008;48.140;11.614;2023-11-19T01:40:46;95436.88;;;6.45;85.56
82379;BME280;72008;48.140;11.614;2023-11-19T01:41:46;95419.72;;;6.45;84.74
82379;BME280;72008;48.140;11.614;2023-11-19T01:42:47;95417.50;;;6.47;84.97
82379;BME280;72008;48.140;11.614;2023-11-19T01:43:47;95422.94;;;6.47;86.00
82379;BME280;72008;48.140;11.614;2023-11-19T01:45:00;95417.34;;;6.43;85.24
82379;BME280;72008;48.140;11.614;2023-11-19T01:46:02;95419.25;;;6.43;85.53
82379;BME280;72008;48.140;11.614;2023-11-19T01:47:03;95416.22;;;6.44;83.81
82379;BME280;72008;48.140;11.614;2023-11-19T01:48:04;95417.00;;;6.45;84.89
82379;BME280;72008;48.140;11.614;2023-11-19T01:49:06;95413.03;;;6.51;84.76
82379;BME280;72008;48.140;11.614;2023-11-19T01:50:07;95410.78;;;6.53;84.96
82379;BME280;72008;48.140;11.614;2023-11-19T01:51:09;95403.75;;;6.52;85.58
82379;BME280;72008;48.140;11.614;2023-11-19T01:52:09;95405.03;;;6.54;85.15
82379;BME280;72008;48.140;11.614;2023-11-19T01:53:09;95405.84;;;6.55;85.18
82379;BME280;72008;48.140;11.614;2023-11-19T01:54:10;95408.41;;;6.51;84.99
82379;BME280;72008;48.140;11.614;2023-11-19T01:55:12;95402.97;;;6.51;84.82
82379;BME280;72008;48.140;11.614;2023-11-19T01:56:15;95403.13;;;6.55;84.42
82379;BME280;72008;48.140;11.614;2023-11-19T01:57:16;95413.50;;;6.53;84.53
82379;BME280;72008;48.140;11.614;2023-11-19T01:58:17;95407.91;;;6.49;85.12
82379;BME280;72008;48.140;11.614;2023-11-19T01:59:17;95412.41;;;6.54;84.95
82379;BME280;72008;48.140;11.614;2023-11-19T02:00:18;95408.56;;;6.55;84.81
82379;BME280;72008;48.140;11.614;2023-11-19T02:01:20;95398.81;;;6.54;84.64
82379;BME280;72008;48.140;11.614;2023-11-19T02:02:20;95399.28;;;6.56;84.53
82379;BME280;72008;48.140;11.614;2023-11-19T02:03:21;95407.28;;;6.52;84.75
82379;BME280;72008;48.140;11.614;2023-11-19T02:04:21;95400.69;;;6.53;84.51
82379;BME280;72008;48.140;11.614;2023-11-19T02:05:22;95398.47;;;6.55;84.78
82379;BME280;72008;48.140;11.614;2023-11-19T02:06:22;95397.84;;;6.58;85.45
82379;BME280;72008;48.140;11.614;2023-11-19T02:07:24;95390.00;;;6.57;84.82
82379;BME280;72008;48.140;11.614;2023-11-19T02:08:25;95391.91;;;6.56;85.01
82379;BME280;72008;48.140;11.614;2023-11-19T02:09:25;95390.81;;;6.57;84.81
82379;BME280;72008;48.140;11.614;2023-11-19T02:10:25;95386.66;;;6.60;85.91
82379;BME280;72008;48.140;11.614;2023-11-19T02:11:27;95390.97;;;6.61;84.93
82379;BME280;72008;48.140;11.614;2023-11-19T02:12:28;95390.97;;;6.61;85.39
82379;BME280;72008;48.140;11.614;2023-11-19T02:13:28;95383.94;;;6.60;84.83
82379;BME280;72008;48.140;11.614;2023-11-19T02:14:29;95386.66;;;6.60;85.15
82379;BME280;72008;48.140;11.614;2023-11-19T02:15:29;95374.66;;;6.61;85.39
82379;BME280;72008;48.140;11.614;2023-11-19T02:16:30;95364.56;;;6.61;85.76
82379;BME280;72008;48.140;11.614;2023-11-19T02:17:31;95366.63;;;6.65;85.67
82379;BME280;72008;48.140;11.614;2023-11-19T02:18:31;95370.63;;;6.67;85.94
82379;BME280;72008;48.140;11.614;2023-11-19T02:19:32;95360.75;;;6.63;84.61
82379;BME280;72008;48.140;11.614;2023-11-19T02:20:32;95359.13;;;6.61;84.25
82379;BME280;72008;48.140;11.614;2023-11-19T02:21:32;95363.13;;;6.64;84.66
82379;BME280;72008;48.140;11.614;2023-11-19T02:22:33;95361.03;;;6.61;85.18
82379;BME280;72008;48.140;11.614;2023-11-19T02:23:33;95354.00;;;6.60;84.46
82379;BME280;72008;48.140;11.614;2023-11-19T02:24:34;95352.09;;;6.60;85.83
82379;BME280;72008;48.140;11.614;2023-11-19T02:25:35;95359.91;;;6.62;85.13
82379;BME280;72008;48.140;11.614;2023-11-19T02:26:45;95348.41;;;6.65;85.11
82379;BME280;72008;48.140;11.614;2023-11-19T02:27:57;95355.25;;;6.71;85.39
82379;BME280;72008;48.140;11.614;2023-11-19T02:28:59;95352.53;;;6.71;84.84
82379;BME280;72008;48.140;11.614;2023-11-19T02:29:59;95342.16;;;6.73;85.55
82379;BME280;72008;48.140;11.614;2023-11-19T02:31:00;95349.03;;;6.71;84.45
82379;BME280;72008;48.140;11.614;2023-11-19T02:32:00;95350.66;;;6.72;85.29
82379;BME280;72008;48.140;11.614;2023-11-19T02:33:01;95338.31;;;6.74;84.95
82379;BME280;72008;48.140;11.614;2023-11-19T02:34:01;95343.13;;;6.77;85.67
82379;BME280;72008;48.140;11.614;2023-11-19T02:35:02;95339.28;;;6.78;84.80
82379;BME280;72008;48.140;11.614;2023-11-19T02:36:06;95338.78;;;6.76;85.46
82379;BME280;72008;48.140;11.614;2023-11-19T02:37:07;95337.03;;;6.80;85.79
82379;BME280;72008;48.140;11.614;2023-11-19T02:38:07;95330.78;;;6.80;84.20
82379;BME280;72008;48.140;11.614;2023-11-19T02:39:08;95337.84;;;6.81;85.03
82379;BME280;72008;48.140;11.614;2023-11-19T02:40:09;95339.75;;;6.80;85.17
82379;BME280;72008;48.140;11.614;2023-11-19T02:41:09;95335.91;;;6.81;85.34
82379;BME280;72008;48.140;11.614;2023-11-19T02:42:09;95332.22;;;6.86;85.00
82379;BME280;72008;48.140;11.614;2023-11-19T02:43:10;95331.41;;;6.86;86.24
82379;BME280;72008;48.140;11.614;2023-11-19T02:44:10;95327.91;;;6.85;84.51
82379;BME280;72008;48.140;11.614;2023-11-19T02:45:11;95329.03;;;6.84;84.83
82379;BME280;72008;48.140;11.614;2023-11-19T02:46:11;95333.34;;;6.85;85.22
82379;BME280;72008;48.140;11.614;2023-11-19T02:47:11;95332.22;;;6.86;85.48
82379;BME280;72008;48.140;11.614;2023-11-19T02:48:12;95328.38;;;6.87;84.46
82379;BME280;72008;48.140;11.614;2023-11-19T02:49:12;95326.47;;;6.88;84.65
82379;BME280;72008;48.140;11.614;2023-11-19T02:50:13;95322.16;;;6.87;85.02
82379;BME280;72008;48.140;11.614;2023-11-19T02:51:13;95330.13;;;6.92;85.40
82379;BME280;72008;48.140;11.614;2023-11-19T02:52:14;95326.75;;;6.95;85.61
82379;BME280;72008;48.140;11.614;2023-11-19T02:53:14;95317.47;;;6.96;84.99
82379;BME280;72008;48.140;11.614;2023-11-19T02:54:14;95326.09;;;6.98;85.29
82379;BME280;72008;48.140;11.614;2023-11-19T02:55:15;95313.78;;;7.00;84.87
82379;BME280;72008;48.140;11.614;2023-11-19T02:56:15;95314.13;;;6.99;85.01
82379;BME280;72008;48.140;11.614;2023-11-19T02:57:16;95310.25;;;7.00;84.73
82379;BME280;72008;48.140;11.614;2023-11-19T02:58:16;95310.25;;;7.00;84.43
82379;BME280;72008;48.140;11.614;2023-11-19T02:59:16;95303.38;;;7.02;84.61
82379;BME280;72008;48.140;11.614;2023-11-19T03:00:18;95296.78;;;7.03;84.70
82379;BME280;72008;48.140;11.614;2023-11-19T03:01:24;95291.84;;;7.05;85.85
82379;BME280;72008;48.140;11.614;2023-11-19T03:02:24;95288.31;;;7.05;85.10
82379;BME280;72008;48.140;11.614;2023-11-19T03:03:25;95289.91;;;7.06;84.52
82379;BME280;72008;48.140;11.614;2023-11-19T03:04:26;95286.09;;;7.07;84.92
82379;BME280;72008;48.140;11.614;2023-11-19T03:05:27;95289.91;;;7.06;85.14
82379;BME280;72008;48.140;11.614;2023-11-19T03:06:27;95295.84;;;7.08;84.34
82379;BME280;72008;48.140;11.614;2023-11-19T03:07:28;95301.28;;;7.08;84.64
82379;BME280;72008;48.140;11.614;2023-11-19T03:08:28;95297.75;;;7.07;85.02
82379;BME280;72008;48.140;11.614;2023-11-19T03:09:29;95297.09;;;7.11;86.35
82379;BME280;72008;48.140;11.614;2023-11-19T03:10:29;95299.84;;;7.11;86.08
82379;BME280;72008;48.140;11.614;2023-11-19T03:11:29;95301.28;;;7.08;85.72
82379;BME280;72008;48.140;11.614;2023-11-19T03:12:30;95287.66;;;7.08;86.01
82379;BME280;72008;48.140;11.614;2023-11-19T03:13:30;95295.50;;;7.10;85.44
82379;BME280;72008;48.140;11.614;2023-11-19T03:14:33;95291.97;;;7.09;84.77
82379;BME280;72008;48.140;11.614;2023-11-19T03:15:33;95287.03;;;7.11;84.66
82379;BME280;72008;48.140;11.614;2023-11-19T03:16:34;95285.44;;;7.10;85.24
82379;BME280;72008;48.140;11.614;2023-11-19T03:17:34;95291.00;;;7.14;85.29
82379;BME280;72008;48.140;11.614;2023-11-19T03:18:34;95285.56;;;7.14;84.85
82379;BME280;72008;48.140;11.614;2023-11-19T03:19:35;95291.47;;;7.16;85.10
82379;BME280;72008;48.140;11.614;2023-11-19T03:20:35;95290.03;;;7.18;84.99
82379;BME280;72008;48.140;11.614;2023-11-19T03:21:36;95290.03;;;7.18;85.13
82379;BME280;72008;48.140;11.614;2023-11-19T03:22:37;95288.44;;;7.17;85.44
82379;BME280;72008;48.140;11.614;2023-11-19T03:23:37;95288.44;;;7.17;85.00
82379;BME280;72008;48.140;11.614;2023-11-19T03:24:37;95290.84;;;7.19;84.58
82379;BME280;72008;48.140;11.614;2023-11-19T03:25:38;95289.72;;;7.20;85.85
82379;BME280;72008;48.140;11.614;2023-11-19T03:26:38;95282.81;;;7.22;84.88
82379;BME280;72008;48.140;11.614;2023-11-19T03:27:39;95281.53;;;7.20;85.35
82379;BME280;72008;48.140;11.614;2023-11-19T03:28:40;95285.41;;;7.19;84.37
82379;BME280;72008;48.140;11.614;2023-11-19T03:29:40;95288.91;;;7.19;84.38
82379;BME280;72008;48.140;11.614;2023-11-19T03:30:41;95291.78;;;7.23;85.61
82379;BME280;72008;48.140;11.614;2023-11-19T03:31:42;95286.34;;;7.23;84.50
82379;BME280;72008;48.140;11.614;2023-11-19T03:32:42;95282.81;;;7.22;84.33
82379;BME280;72008;48.140;11.614;2023-11-19T03:33:43;95282.03;;;7.22;84.71
82379;BME280;72008;48.140;11.614;2023-11-19T03:34:43;95283.94;;;7.21;85.56
82379;BME280;72008;48.140;11.614;2023-11-19T03:35:43;95281.38;;;7.25;85.50
82379;BME280;72008;48.140;11.614;2023-11-19T03:36:44;95276.72;;;7.25;84.23
82379;BME280;72008;48.140;11.614;2023-11-19T03:37:44;95283.28;;;7.24;84.33
82379;BME280;72008;48.140;11.614;2023-11-19T03:38:45;95285.53;;;7.22;84.44
82379;BME280;72008;48.140;11.614;2023-11-19T03:39:45;95283.63;;;7.23;83.90
82379;BME280;72008;48.140;11.614;2023-11-19T03:40:45;95281.38;;;7.25;84.23
82379;BME280;72008;48.140;11.614;2023-11-19T03:41:46;95282.16;;;7.25;84.58
82379;BME280;72008;48.140;11.614;2023-11-19T03:42:46;95288.72;;;7.24;85.00
82379;BME280;72008;48.140;11.614;2023-11-19T03:43:47;95284.41;;;7.23;86.55
82379;BME280;72008;48.140;11.614;2023-11-19T03:44:47;95285.69;;;7.26;85.41
82379;BME280;72008;48.140;11.614;2023-11-19T03:45:48;95281.03;;;7.26;84.67
82379;BME280;72008;48.140;11.614;2023-11-19T03:46:48;95289.69;;;7.28;85.00
82379;BME280;72008;48.140;11.614;2023-11-19T03:47:48;95285.66;;;7.35;85.63
82379;BME280;72008;48.140;11.614;2023-11-19T03:48:50;95296.41;;;7.31;84.07
82379;BME280;72008;48.140;11.614;2023-11-19T03:49:51;95294.78;;;7.30;83.84
82379;BME280;72008;48.140;11.614;2023-11-19T03:50:51;95298.31;;;7.31;84.66
82379;BME280;72008;48.140;11.614;2023-11-19T03:51:52;95292.88;;;7.31;84.37
82379;BME280;72008;48.140;11.614;2023-11-19T03:52:52;95294.47;;;7.32;84.06
82379;BME280;72008;48.140;11.614;2023-11-19T03:53:53;95291.56;;;7.37;84.43
82379;BME280;72008;48.140;11.614;2023-11-19T03:54:53;95291.56;;;7.37;85.21
82379;BME280;72008;48.140;11.614;2023-11-19T03:55:53;95293.47;;;7.36;84.73
82379;BME280;72008;48.140;11.614;2023-11-19T03:56:54;95284.50;;;7.36;85.13
82379;BME280;72008;48.140;11.614;2023-11-19T03:57:54;95289.50;;;7.34;84.07
82379;BME280;72008;48.140;11.614;2023-11-19T03:58:54;95291.56;;;7.37;84.84
82379;BME280;72008;48.140;11.614;2023-11-19T03:59:55;95289.66;;;7.37;84.71
82379;BME280;72008;48.140;11.614;2023-11-19T04:00:55;95291.56;;;7.37;84.01
82379;BME280;72008;48.140;11.614;2023-11-19T04:01:56;95288.50;;;7.38;85.13
82379;BME280;72008;48.140;11.614;2023-11-19T04:02:57;95278.75;;;7.37;83.92
82379;BME280;72008;48.140;11.614;2023-11-19T04:03:57;95278.88;;;7.41;85.15
82379;BME280;72008;48.140;11.614;2023-11-19T04:04:57;95280.03;;;7.40;84.52
82379;BME280;72008;48.140;11.614;2023-11-19T04:05:58;95282.75;;;7.40;84.13
82379;BME280;72008;48.140;11.614;2023-11-19T04:06:58;95276.66;;;7.43;84.56
82379;BME280;72008;48.140;11.614;2023-11-19T04:07:59;95281.63;;;7.41;83.91
82379;BME280;72008;48.140;11.614;2023-11-19T04:08:59;95285.47;;;7.40;84.72
82379;BME280;72008;48.140;11.614;2023-11-19T04:09:59;95284.81;;;7.43;84.77
82379;BME280;72008;48.140;11.614;2023-11-19T04:11:00;95288.66;;;7.42;84.65
82379;BME280;72008;48.140;11.614;2023-11-19T04:12:00;95285.91;;;7.42;83.96
82379;BME280;72008;48.140;11.614;2023-11-19T04:13:01;95287.06;;;7.41;83.58
82379;BME280;72008;48.140;11.614;2023-11-19T04:14:01;95300.50;;;7.46;85.12
82379;BME280;72008;48.140;11.614;2023-11-19T04:15:02;95289.91;;;7.44;83.88
82379;BME280;72008;48.140;11.614;2023-11-19T04:16:02;95287.19;;;7.44;84.21
82379;BME280;72008;48.140;11.614;2023-11-19T04:17:03;95292.63;;;7.44;84.54
82379;BME280;72008;48.140;11.614;2023-11-19T04:18:03;95297.78;;;7.46;84.19
82379;BME280;72008;48.140;11.614;2023-11-19T04:19:04;95295.06;;;7.46;84.48
82379;BME280;72008;48.140;11.614;2023-11-19T04:20:05;95301.28;;;7.46;85.26
82379;BME280;72008;48.140;11.614;2023-11-19T04:21:08;95291.69;;;7.49;84.00
82379;BME280;72008;48.140;11.614;2023-11-19T04:22:09;95298.22;;;7.48;84.14
82379;BME280;72008;48.140;11.614;2023-11-19T04:23:09;95299.06;;;7.48;83.99
82379;BME280;72008;48.140;11.614;2023-11-19T04:24:10;95290.88;;;7.48;84.94
82379;BME280;72008;48.140;11.614;2023-11-19T04:25:10;95292.94;;;7.51;84.36
82379;BME280;72008;48.140;11.614;2023-11-19T04:26:10;95296.78;;;7.50;83.86
82379;BME280;72008;48.140;11.614;2023-11-19T04:27:11;95293.25;;;7.50;84.01
82379;BME280;72008;48.140;11.614;2023-11-19T04:28:11;95296.47;;;7.52;84.22
82379;BME280;72008;48.140;11.614;2023-11-19T04:29:13;95301.44;;;7.50;85.08
82379;BME280;72008;48.140;11.614;2023-11-19T04:30:14;95294.19;;;7.54;85.34
82379;BME280;72008;48.140;11.614;2023-11-19T04:31:15;95296.13;;;7.53;84.03
82379;BME280;72008;48.140;11.614;2023-11-19T04:32:16;95291.47;;;7.54;84.44
82379;BME280;72008;48.140;11.614;2023-11-19T04:33:16;95298.06;;;7.53;83.92
82379;BME280;72008;48.140;11.614;2023-11-19T04:34:16;95303.19;;;7.55;84.13
82379;BME280;72008;48.140;11.614;2023-11-19T04:35:17;95298.53;;;7.55;84.79
82379;BME280;72008;48.140;11.614;2023-11-19T04:36:18;95297.75;;;7.55;84.70
82379;BME280;72008;48.140;11.614;2023-11-19T04:37:19;95300.59;;;7.58;83.79
82379;BME280;72008;48.140;11.614;2023-11-19T04:38:19;95301.06;;;7.60;84.46
82379;BME280;72008;48.140;11.614;2023-11-19T04:39:19;95302.31;;;7.63;84.78
82379;BME280;72008;48.140;11.614;2023-11-19T04:40:20;95291.44;;;7.63;85.19
82379;BME280;72008;48.140;11.614;2023-11-19T04:41:20;95295.56;;;7.69;85.31
82379;BME280;72008;48.140;11.614;2023-11-19T04:42:22;95291.09;;;7.64;84.66
82379;BME280;72008;48.140;11.614;2023-11-19T04:43:22;95296.56;;;7.64;83.92
82379;BME280;72008;48.140;11.614;2023-11-19T04:44:23;95299.28;;;7.64;84.33
82379;BME280;72008;48.140;11.614;2023-11-19T04:45:23;95295.41;;;7.65;85.18
82379;BME280;72008;48.140;11.614;2023-11-19T04:46:24;95293.19;;;7.67;85.41
82379;BME280;72008;48.140;11.614;2023-11-19T04:47:24;95292.50;;;7.70;84.44
82379;BME280;72008;48.140;11.614;2023-11-19T04:48:24;95291.19;;;7.77;85.59
82379;BME280;72008;48.140;11.614;2023-11-19T04:49:25;95292.19;;;7.72;84.19
82379;BME280;72008;48.140;11.614;2023-11-19T04:50:25;95295.56;;;7.69;84.57
82379;BME280;72008;48.140;11.614;2023-11-19T04:51:25;95283.94;;;7.81;86.13
82379;BME280;72008;48.140;11.614;2023-11-19T04:52:26;95288.75;;;7.84;85.33
82379;BME280;72008;48.140;11.614;2023-11-19T04:53:26;95290.66;;;7.83;85.50
82379;BME280;72008;48.140;11.614;2023-11-19T04:54:27;95298.19;;;7.86;85.97
82379;BME280;72008;48.140;11.614;2023-11-19T04:55:27;95292.91;;;7.90;85.30
82379;BME280;72008;48.140;11.614;2023-11-19T04:56:27;95286.97;;;7.88;84.68
82379;BME280;72008;48.140;11.614;2023-11-19T04:57:28;95287.44;;;7.90;84.79
82379;BME280;72008;48.140;11.614;2023-11-19T04:58:29;95290.31;;;7.93;87.30
82379;BME280;72008;48.140;11.614;2023-11-19T04:59:29;95289.16;;;7.94;85.33
82379;BME280;72008;48.140;11.614;2023-11-19T05:00:30;95298.78;;;7.92;84.18
82379;BME280;72008;48.140;11.614;2023-11-19T05:01:30;95288.38;;;7.94;87.38
82379;BME280;72008;48.140;11.614;2023-11-19T05:02:30;95290.63;;;7.92;84.31
82379;BME280;72008;48.140;11.614;2023-11-19T05:03:31;95302.19;;;7.89;85.55
82379;BME280;72008;48.140;11.614;2023-11-19T05:04:32;95297.69;;;7.93;85.42
82379;BME280;72008;48.140;11.614;2023-11-19T05:05:32;95303.72;;;7.98;87.15
82379;BME280;72008;48.140;11.614;2023-11-19T05:06:32;95298.22;;;8.07;86.74
82379;BME280;72008;48.140;11.614;2023-11-19T05:07:33;95299.81;;;8.08;88.19
82379;BME280;72008;48.140;11.614;2023-11-19T05:08:33;95296.63;;;8.06;85.54
82379;BME280;72008;48.140;11.614;2023-11-19T05:09:34;95304.19;;;8.01;84.82
82379;BME280;72008;48.140;11.614;2023-11-19T05:10:34;95299.22;;;8.03;88.19
82379;BME280;72008;48.140;11.614;2023-11-19T05:11:35;95304.59;;;8.11;88.83
82379;BME280;72008;48.140;11.614;2023-11-19T05:12:35;95300.75;;;8.12;85.70
82379;BME280;72008;48.140;11.614;2023-11-19T05:13:36;95319.81;;;8.12;84.87
82379;BME280;72008;48.140;11.614;2023-11-19T05:14:36;95314.06;;;8.14;86.89
82379;BME280;72008;48.140;11.614;2023-11-19T05:15:36;95314.06;;;8.14;85.70
82379;BME280;72008;48.140;11.614;2023-11-19T05:16:40;95315.78;;;8.18;87.35
82379;BME280;72008;48.140;11.614;2023-11-19T05:17:40;95305.88;;;8.14;86.00
82379;BME280;72008;48.140;11.614;2023-11-19T05:18:41;95308.44;;;8.10;84.02
82379;BME280;72008;48.140;11.614;2023-11-19T05:19:41;95306.06;;;8.09;84.87
82379;BME280;72008;48.140;11.614;2023-11-19T05:20:41;95304.59;;;8.11;84.87
82379;BME280;72008;48.140;11.614;2023-11-19T05:21:43;95307.81;;;8.13;85.70